Time;durP1;ratioP1;P1;durP2;ratioP2;P2;SDS_P1;SDS_P2;PMS_P1;PMS_P2;Temp;Humidity;BMP_temperature;BMP_pressure;BME280_temperature;BME280_humidity;BME280_pressure;Samples;Min_cycle;Max_cycle;Signal;HPM_P1;HPM_P2
2022/03/07 00:00:17;;;;;;;3.50;2.20;;;;;;;;;;7386032;19;20031;-71
2022/03/07 00:02:42;;;;;;;3.72;2.55;;;;;;;;;;7389833;19;20018;-70
2022/03/07 00:05:08;;;;;;;6.43;2.42;;;;;;;;;;7391024;19;20006;-73
2022/03/07 00:07:33;;;;;;;4.53;2.50;;;;;;;;;;7386095;19;20010;-72
2022/03/07 00:09:58;;;;;;;4.53;2.80;;;;;;;;;;7389471;19;20034;-70
2022/03/07 00:12:24;;;;;;;3.97;2.70;;;;;;;;;;7390635;19;20034;-72
2022/03/07 00:14:50;;;;;;;3.08;2.47;;;;;;;;;;7391570;19;20018;-72
2022/03/07 00:17:15;;;;;;;4.50;2.35;;;;;;;;;;7386594;19;20011;-70
2022/03/07 00:19:40;;;;;;;3.63;2.38;;;;;;;;;;7389435;19;20014;-71
2022/03/07 00:22:05;;;;;;;3.80;2.72;;;;;;;;;;7390471;19;19998;-71
2022/03/07 00:24:31;;;;;;;4.57;2.90;;;;;;;;;;7390277;19;20015;-71
2022/03/07 00:26:56;;;;;;;4.38;2.97;;;;;;;;;;7386635;19;20473;-73
2022/03/07 00:29:21;;;;;;;3.50;2.42;;;;;;;;;;7387145;19;20527;-71
2022/03/07 00:31:47;;;;;;;4.43;2.40;;;;;;;;;;7391376;19;20006;-72
2022/03/07 00:34:12;;;;;;;4.68;2.63;;;;;;;;;;7389004;19;20445;-70
2022/03/07 00:36:38;;;;;;;5.43;2.97;;;;;;;;;;7387702;19;19999;-70
2022/03/07 00:39:03;;;;;;;3.88;2.55;;;;;;;;;;7388121;19;20007;-71
2022/03/07 00:41:28;;;;;;;4.50;3.13;;;;;;;;;;7388643;19;20003;-70
2022/03/07 00:43:54;;;;;;;5.82;3.05;;;;;;;;;;7387748;19;20031;-71
2022/03/07 00:46:19;;;;;;;4.05;2.55;;;;;;;;;;7387680;19;20002;-72
2022/03/07 00:48:44;;;;;;;6.00;3.00;;;;;;;;;;7386987;19;20382;-71
2022/03/07 00:51:10;;;;;;;6.47;3.22;;;;;;;;;;7389637;19;20337;-71
2022/03/07 00:53:35;;;;;;;4.43;2.88;;;;;;;;;;7386790;19;20103;-73
2022/03/07 00:56:00;;;;;;;5.72;3.22;;;;;;;;;;7388660;19;20006;-71
2022/03/07 00:58:26;;;;;;;5.22;3.15;;;;;;;;;;7386791;19;20140;-71
2022/03/07 01:00:51;;;;;;;4.88;2.85;;;;;;;;;;7387363;19;20382;-72
2022/03/07 01:03:17;;;;;;;4.85;2.63;;;;;;;;;;7386240;19;20006;-70
2022/03/07 01:05:44;;;;;;;6.78;3.30;;;;;;;;;;7386860;19;20007;-72
2022/03/07 01:08:09;;;;;;;4.25;3.22;;;;;;;;;;7386984;19;20027;-73
2022/03/07 01:10:35;;;;;;;4.30;2.72;;;;;;;;;;7389797;19;20003;-70
2022/03/07 01:13:01;;;;;;;6.68;2.88;;;;;;;;;;7387350;19;20010;-71
2022/03/07 01:15:26;;;;;;;6.03;3.20;;;;;;;;;;7387230;19;20010;-73
2022/03/07 01:17:54;;;;;;;6.07;3.25;;;;;;;;;;7387111;19;20077;-72
2022/03/07 01:20:19;;;;;;;6.53;3.25;;;;;;;;;;7379648;19;20006;-72
2022/03/07 01:22:45;;;;;;;5.18;3.35;;;;;;;;;;7383401;19;20472;-71
2022/03/07 01:25:10;;;;;;;6.55;3.17;;;;;;;;;;7386437;19;20006;-71
2022/03/07 01:27:36;;;;;;;4.50;2.67;;;;;;;;;;7387617;19;20448;-70
2022/03/07 01:30:03;;;;;;;4.97;2.60;;;;;;;;;;7384023;19;20009;-71
2022/03/07 01:32:28;;;;;;;5.05;3.08;;;;;;;;;;7383311;19;20014;-70
2022/03/07 01:34:54;;;;;;;4.75;3.00;;;;;;;;;;7387287;19;20009;-71
2022/03/07 01:37:19;;;;;;;4.97;3.30;;;;;;;;;;7385048;19;20017;-71
2022/03/07 01:39:45;;;;;;;5.28;2.88;;;;;;;;;;7384473;19;20007;-71
2022/03/07 01:42:10;;;;;;;4.50;2.58;;;;;;;;;;7382728;19;20014;-70
2022/03/07 01:44:36;;;;;;;4.55;2.92;;;;;;;;;;7384759;19;20006;-73
2022/03/07 01:47:02;;;;;;;5.05;2.97;;;;;;;;;;7381585;19;20006;-72
2022/03/07 01:49:28;;;;;;;5.38;3.20;;;;;;;;;;7384448;19;20014;-72
2022/03/07 01:51:55;;;;;;;5.00;2.40;;;;;;;;;;7385076;19;20103;-71
2022/03/07 01:54:21;;;;;;;3.88;2.67;;;;;;;;;;7386113;19;20010;-74
2022/03/07 01:56:48;;;;;;;4.93;3.00;;;;;;;;;;7384726;19;20006;-72
2022/03/07 01:59:17;;;;;;;6.43;3.22;;;;;;;;;;7383547;19;20034;-74
2022/03/07 02:01:42;;;;;;;5.82;2.92;;;;;;;;;;7384511;19;20480;-72
2022/03/07 02:04:09;;;;;;;6.80;2.80;;;;;;;;;;7381866;19;20037;-74
2022/03/07 02:06:34;;;;;;;3.78;2.40;;;;;;;;;;7383304;19;20022;-73
2022/03/07 02:08:59;;;;;;;4.65;2.53;;;;;;;;;;7381709;19;20002;-72
2022/03/07 02:11:25;;;;;;;5.47;2.47;;;;;;;;;;7383531;19;20006;-72
2022/03/07 02:13:52;;;;;;;4.80;3.10;;;;;;;;;;7384015;19;20239;-72
2022/03/07 02:16:18;;;;;;;7.47;3.10;;;;;;;;;;7384819;19;20048;-72
2022/03/07 02:18:43;;;;;;;7.20;2.53;;;;;;;;;;7381291;19;20341;-72
2022/03/07 02:21:13;;;;;;;5.85;3.13;;;;;;;;;;7385250;19;20082;-73
2022/03/07 02:23:39;;;;;;;5.32;3.05;;;;;;;;;;7411308;19;20009;-74
2022/03/07 02:26:16;;;;;;;4.60;3.10;;;;;;;;;;7406568;19;20006;-72
2022/03/07 02:28:43;;;;;;;4.05;2.85;;;;;;;;;;7387589;19;20486;-71
2022/03/07 02:31:09;;;;;;;8.82;3.25;;;;;;;;;;7385036;19;20010;-71
2022/03/07 02:33:35;;;;;;;4.25;2.25;;;;;;;;;;7383828;19;20029;-71
2022/03/07 02:36:01;;;;;;;4.15;2.38;;;;;;;;;;7380858;19;20035;-70
2022/03/07 02:38:26;;;;;;;3.50;2.42;;;;;;;;;;7377352;19;20382;-72
2022/03/07 02:40:51;;;;;;;5.47;2.58;;;;;;;;;;7383495;19;20006;-72
2022/03/07 02:43:17;;;;;;;4.38;2.78;;;;;;;;;;7381706;19;20018;-72
2022/03/07 02:45:44;;;;;;;3.22;2.17;;;;;;;;;;7383049;19;20018;-72
2022/03/07 02:48:09;;;;;;;4.80;2.70;;;;;;;;;;7381925;19;20078;-73
2022/03/07 02:50:34;;;;;;;4.28;2.47;;;;;;;;;;7382400;19;20007;-73
2022/03/07 02:53:00;;;;;;;2.80;2.05;;;;;;;;;;7382631;19;20019;-72
2022/03/07 02:55:25;;;;;;;4.43;2.58;;;;;;;;;;7379087;19;20032;-71
2022/03/07 02:57:51;;;;;;;4.45;2.30;;;;;;;;;;7382847;19;20006;-72
2022/03/07 03:00:17;;;;;;;4.10;1.67;;;;;;;;;;7380817;19;20002;-72
2022/03/07 03:02:42;;;;;;;3.70;2.25;;;;;;;;;;7381590;19;20014;-73
2022/03/07 03:05:08;;;;;;;3.15;2.00;;;;;;;;;;7382728;19;20010;-71
2022/03/07 03:07:34;;;;;;;4.45;2.17;;;;;;;;;;7382886;19;20062;-71
2022/03/07 03:10:00;;;;;;;2.20;1.70;;;;;;;;;;7379275;19;20689;-71
2022/03/07 03:12:26;;;;;;;3.10;2.05;;;;;;;;;;7378316;19;20014;-72
2022/03/07 03:14:52;;;;;;;6.45;2.65;;;;;;;;;;7382226;19;20472;-71
2022/03/07 03:17:17;;;;;;;2.70;1.77;;;;;;;;;;7382640;19;20077;-72
2022/03/07 03:19:42;;;;;;;3.35;1.90;;;;;;;;;;7380805;19;20436;-75
2022/03/07 03:22:08;;;;;;;2.63;2.00;;;;;;;;;;7383214;19;20014;-72
2022/03/07 03:24:33;;;;;;;4.45;1.90;;;;;;;;;;7383624;19;20350;-74
2022/03/07 03:26:58;;;;;;;2.17;1.67;;;;;;;;;;7381861;19;20453;-71
2022/03/07 03:29:24;;;;;;;3.38;1.77;;;;;;;;;;7377712;19;20464;-71
2022/03/07 03:31:49;;;;;;;2.72;1.83;;;;;;;;;;7378546;19;20028;-72
2022/03/07 03:34:15;;;;;;;2.60;1.65;;;;;;;;;;7382701;19;20038;-71
2022/03/07 03:36:40;;;;;;;2.35;1.58;;;;;;;;;;7380326;19;20014;-72
2022/03/07 03:39:05;;;;;;;2.95;1.73;;;;;;;;;;7380291;19;20002;-72
2022/03/07 03:41:31;;;;;;;3.58;1.85;;;;;;;;;;7382694;19;20363;-71
2022/03/07 03:43:56;;;;;;;1.92;1.45;;;;;;;;;;7381502;19;20006;-71
2022/03/07 03:46:21;;;;;;;3.03;1.65;;;;;;;;;;7380030;19;20011;-74
2022/03/07 03:48:47;;;;;;;2.13;1.65;;;;;;;;;;7378301;19;20007;-72
2022/03/07 03:51:12;;;;;;;4.20;1.75;;;;;;;;;;7382336;19;20502;-72
2022/03/07 03:53:37;;;;;;;2.58;2.10;;;;;;;;;;7381549;19;20014;-72
2022/03/07 03:56:03;;;;;;;2.15;1.73;;;;;;;;;;7387505;19;20079;-72
2022/03/07 03:58:28;;;;;;;1.98;1.60;;;;;;;;;;7387071;19;20007;-72
2022/03/07 04:00:53;;;;;;;3.30;1.67;;;;;;;;;;7388653;19;20054;-72
2022/03/07 04:03:19;;;;;;;3.33;2.03;;;;;;;;;;7386068;19;20002;-72
2022/03/07 04:05:44;;;;;;;2.45;1.73;;;;;;;;;;7388943;19;20033;-74
2022/03/07 04:08:09;;;;;;;2.47;1.67;;;;;;;;;;7385663;19;20523;-74
2022/03/07 04:10:35;;;;;;;2.30;1.73;;;;;;;;;;7388510;19;20341;-72
2022/03/07 04:13:00;;;;;;;2.33;1.73;;;;;;;;;;7388471;19;20466;-71
2022/03/07 04:15:26;;;;;;;2.30;1.65;;;;;;;;;;7386289;19;20006;-71
2022/03/07 04:17:52;;;;;;;2.40;1.35;;;;;;;;;;7388889;19;20007;-72
2022/03/07 04:20:18;;;;;;;2.08;1.70;;;;;;;;;;7385813;19;20010;-73
2022/03/07 04:22:43;;;;;;;2.30;1.75;;;;;;;;;;7387558;19;20003;-72
2022/03/07 04:25:09;;;;;;;2.30;1.60;;;;;;;;;;7387943;19;20006;-71
2022/03/07 04:27:34;;;;;;;2.60;1.48;;;;;;;;;;7387324;19;20070;-72
2022/03/07 04:30:03;;;;;;;2.42;1.52;;;;;;;;;;7384764;19;20006;-72
2022/03/07 04:32:28;;;;;;;1.67;1.50;;;;;;;;;;7386408;19;20002;-71
2022/03/07 04:34:53;;;;;;;1.95;1.45;;;;;;;;;;7388788;19;20673;-72
2022/03/07 04:37:19;;;;;;;2.85;1.50;;;;;;;;;;7379140;19;20011;-72
2022/03/07 04:39:44;;;;;;;1.85;1.40;;;;;;;;;;7375721;19;20018;-72
2022/03/07 04:42:09;;;;;;;2.30;1.38;;;;;;;;;;7380796;19;20006;-73
2022/03/07 04:44:35;;;;;;;2.78;1.90;;;;;;;;;;7384214;19;20041;-72
2022/03/07 04:47:00;;;;;;;1.73;1.30;;;;;;;;;;7382851;19;20021;-74
2022/03/07 04:49:25;;;;;;;2.00;1.35;;;;;;;;;;7382999;19;20182;-71
2022/03/07 04:51:51;;;;;;;2.83;1.98;;;;;;;;;;7388026;19;20452;-71
2022/03/07 04:54:16;;;;;;;3.47;1.88;;;;;;;;;;7384098;19;20006;-72
2022/03/07 04:56:47;;;;;;;2.75;1.75;;;;;;;;;;7383791;19;20028;-71
2022/03/07 04:59:13;;;;;;;1.80;1.27;;;;;;;;;;7380333;19;20367;-72
2022/03/07 05:01:39;;;;;;;2.03;1.52;;;;;;;;;;7385349;19;20017;-73
2022/03/07 05:04:04;;;;;;;4.07;1.40;;;;;;;;;;7353689;19;20013;-74
2022/03/07 05:06:30;;;;;;;2.70;1.60;;;;;;;;;;7379565;19;20317;-71
2022/03/07 05:08:55;;;;;;;3.83;1.83;;;;;;;;;;7378661;19;20492;-72
2022/03/07 05:11:20;;;;;;;3.83;1.73;;;;;;;;;;7379991;19;20081;-72
2022/03/07 05:13:45;;;;;;;2.22;1.45;;;;;;;;;;7381443;19;20133;-72
2022/03/07 05:16:11;;;;;;;2.38;1.75;;;;;;;;;;7382686;19;20018;-73
2022/03/07 05:18:36;;;;;;;2.75;1.73;;;;;;;;;;7383479;19;20318;-71
2022/03/07 05:21:02;;;;;;;3.53;1.77;;;;;;;;;;7385555;19;20006;-71
2022/03/07 05:23:27;;;;;;;3.75;1.63;;;;;;;;;;7384678;19;20017;-73
2022/03/07 05:25:52;;;;;;;2.85;2.33;;;;;;;;;;7382714;19;20017;-72
2022/03/07 05:28:18;;;;;;;2.28;1.65;;;;;;;;;;7380261;19;20143;-74
2022/03/07 05:30:43;;;;;;;1.48;1.23;;;;;;;;;;7383288;19;20007;-74
2022/03/07 05:33:08;;;;;;;4.20;2.13;;;;;;;;;;7382886;19;20010;-72
2022/03/07 05:35:34;;;;;;;4.00;1.20;;;;;;;;;;7383968;19;20944;-72
2022/03/07 05:37:59;;;;;;;3.17;1.35;;;;;;;;;;7385129;19;20031;-72
2022/03/07 05:40:24;;;;;;;2.83;1.83;;;;;;;;;;7385419;19;20525;-72
2022/03/07 05:42:50;;;;;;;3.15;2.30;;;;;;;;;;7381883;19;20043;-74
2022/03/07 05:45:15;;;;;;;2.33;1.65;;;;;;;;;;7378990;19;20007;-71
2022/03/07 05:47:41;;;;;;;3.08;1.90;;;;;;;;;;7381854;19;20010;-72
2022/03/07 05:50:08;;;;;;;2.95;1.83;;;;;;;;;;7382494;19;20014;-72
2022/03/07 05:52:34;;;;;;;2.17;1.20;;;;;;;;;;7383898;19;20346;-72
2022/03/07 05:54:59;;;;;;;2.60;1.75;;;;;;;;;;7383978;19;20453;-73
2022/03/07 05:57:24;;;;;;;6.80;2.90;;;;;;;;;;7386442;19;20040;-72
2022/03/07 05:59:50;;;;;;;3.28;1.90;;;;;;;;;;7381438;19;20062;-71
2022/03/07 06:02:15;;;;;;;2.72;1.80;;;;;;;;;;7382936;19;20027;-71
2022/03/07 06:04:41;;;;;;;2.88;1.95;;;;;;;;;;7384024;19;20006;-74
2022/03/07 06:07:07;;;;;;;2.35;1.60;;;;;;;;;;7383011;19;20139;-73
2022/03/07 06:09:32;;;;;;;2.42;1.70;;;;;;;;;;7398985;19;20461;-73
2022/03/07 06:11:58;;;;;;;3.72;2.10;;;;;;;;;;7408573;19;20039;-73
2022/03/07 06:14:23;;;;;;;4.95;2.47;;;;;;;;;;7398637;19;20018;-71
2022/03/07 06:16:48;;;;;;;7.35;3.08;;;;;;;;;;7380389;19;20011;-71
2022/03/07 06:19:14;;;;;;;3.53;2.33;;;;;;;;;;7374398;19;20017;-72
2022/03/07 06:21:39;;;;;;;5.47;2.35;;;;;;;;;;7372972;19;20006;-74
2022/03/07 06:24:05;;;;;;;3.70;1.88;;;;;;;;;;7379309;19;20014;-72
2022/03/07 06:26:30;;;;;;;4.55;2.33;;;;;;;;;;7380200;19;20122;-72
2022/03/07 06:28:56;;;;;;;3.47;2.08;;;;;;;;;;7373676;19;20027;-73
2022/03/07 06:31:21;;;;;;;3.58;2.00;;;;;;;;;;7376474;19;20002;-72
2022/03/07 06:33:46;;;;;;;3.13;2.25;;;;;;;;;;7374481;19;20014;-72
2022/03/07 06:36:12;;;;;;;4.93;2.28;;;;;;;;;;7380702;19;20003;-73
2022/03/07 06:38:39;;;;;;;4.53;2.28;;;;;;;;;;7375329;19;20010;-72
2022/03/07 06:41:05;;;;;;;3.72;2.33;;;;;;;;;;7374607;19;20032;-72
2022/03/07 06:43:31;;;;;;;3.80;2.20;;;;;;;;;;7368271;19;20167;-72
2022/03/07 06:45:56;;;;;;;5.03;2.15;;;;;;;;;;7379572;19;20211;-73
2022/03/07 06:48:22;;;;;;;4.07;2.30;;;;;;;;;;7375322;19;20010;-72
2022/03/07 06:50:47;;;;;;;6.60;2.38;;;;;;;;;;7379810;19;20006;-72
2022/03/07 06:53:13;;;;;;;3.97;2.42;;;;;;;;;;7380268;19;20283;-76
2022/03/07 06:55:39;;;;;;;5.95;2.45;;;;;;;;;;7379532;19;20472;-72
2022/03/07 06:58:04;;;;;;;4.65;2.42;;;;;;;;;;7379693;19;20479;-73
2022/03/07 07:00:30;;;;;;;4.38;2.78;;;;;;;;;;7379264;19;20078;-72
2022/03/07 07:02:55;;;;;;;5.25;2.97;;;;;;;;;;7376813;19;20026;-73
2022/03/07 07:05:20;;;;;;;5.10;2.42;;;;;;;;;;7380838;19;20018;-74
2022/03/07 07:07:46;;;;;;;4.57;2.67;;;;;;;;;;7380676;19;20009;-72
2022/03/07 07:10:13;;;;;;;4.60;3.22;;;;;;;;;;7377638;19;20481;-72
2022/03/07 07:12:39;;;;;;;4.70;3.05;;;;;;;;;;7380245;19;20014;-72
2022/03/07 07:15:06;;;;;;;4.13;2.88;;;;;;;;;;7380070;19;20497;-72
2022/03/07 07:17:31;;;;;;;8.40;3.38;;;;;;;;;;7378843;19;20011;-73
2022/03/07 07:19:56;;;;;;;3.92;2.80;;;;;;;;;;7378565;19;20500;-73
2022/03/07 07:22:22;;;;;;;5.97;3.35;;;;;;;;;;7381501;19;20011;-74
2022/03/07 07:24:47;;;;;;;5.82;2.60;;;;;;;;;;7379552;19;20465;-75
2022/03/07 07:27:12;;;;;;;5.40;3.15;;;;;;;;;;7374505;19;20038;-73
2022/03/07 07:29:38;;;;;;;5.20;3.38;;;;;;;;;;7378329;19;20061;-72
2022/03/07 07:32:04;;;;;;;6.18;3.60;;;;;;;;;;7383707;19;20109;-72
2022/03/07 07:34:29;;;;;;;4.95;3.47;;;;;;;;;;7385277;19;20014;-72
2022/03/07 07:36:54;;;;;;;6.55;3.88;;;;;;;;;;7382568;19;20014;-73
2022/03/07 07:39:20;;;;;;;7.07;3.72;;;;;;;;;;7382067;19;20014;-74
2022/03/07 07:41:46;;;;;;;6.50;4.55;;;;;;;;;;7386752;19;20532;-72
2022/03/07 07:44:11;;;;;;;5.72;3.92;;;;;;;;;;7385258;19;20041;-72
2022/03/07 07:46:36;;;;;;;7.20;4.18;;;;;;;;;;7386733;19;20014;-72
2022/03/07 07:49:02;;;;;;;8.25;3.67;;;;;;;;;;7385840;19;20006;-71
2022/03/07 07:51:28;;;;;;;8.45;4.05;;;;;;;;;;7387518;19;20478;-72
2022/03/07 07:53:53;;;;;;;5.97;4.35;;;;;;;;;;7384071;19;20341;-72
2022/03/07 07:56:18;;;;;;;7.88;4.28;;;;;;;;;;7384817;19;20046;-72
2022/03/07 07:58:44;;;;;;;8.43;4.97;;;;;;;;;;7383536;19;20108;-72
2022/03/07 08:01:09;;;;;;;9.18;5.60;;;;;;;;;;7382704;19;20038;-71
2022/03/07 08:03:35;;;;;;;11.50;5.45;;;;;;;;;;7383447;19;19999;-73
2022/03/07 08:06:00;;;;;;;7.47;4.63;;;;;;;;;;7381056;19;20393;-73
2022/03/07 08:08:25;;;;;;;7.40;4.70;;;;;;;;;;7376643;19;20019;-72
2022/03/07 08:10:51;;;;;;;9.48;5.72;;;;;;;;;;7381249;19;20010;-74
2022/03/07 08:13:16;;;;;;;10.07;6.03;;;;;;;;;;7375989;19;20114;-72
2022/03/07 08:15:42;;;;;;;7.63;5.50;;;;;;;;;;7370566;19;20017;-75
2022/03/07 08:18:07;;;;;;;9.05;5.35;;;;;;;;;;7379068;19;20031;-73
2022/03/07 08:20:33;;;;;;;11.10;5.82;;;;;;;;;;7382055;19;20363;-73
2022/03/07 08:22:59;;;;;;;8.45;5.60;;;;;;;;;;7387207;19;20323;-72
2022/03/07 08:25:25;;;;;;;8.43;5.57;;;;;;;;;;7385928;19;20023;-73
2022/03/07 08:27:51;;;;;;;9.00;5.90;;;;;;;;;;7386413;19;20049;-73
2022/03/07 08:30:18;;;;;;;9.98;5.85;;;;;;;;;;7382644;19;20003;-76
2022/03/07 08:32:44;;;;;;;8.95;5.88;;;;;;;;;;7382127;19;21118;-73
2022/03/07 08:35:10;;;;;;;12.40;6.35;;;;;;;;;;7386711;19;20010;-74
2022/03/07 08:37:37;;;;;;;9.55;5.47;;;;;;;;;;7386538;19;20017;-74
2022/03/07 08:40:05;;;;;;;7.30;5.25;;;;;;;;;;7383469;19;20010;-74
2022/03/07 08:42:31;;;;;;;10.05;6.43;;;;;;;;;;7380726;19;20113;-74
2022/03/07 08:44:56;;;;;;;10.93;5.90;;;;;;;;;;7387911;19;20027;-72
2022/03/07 08:47:21;;;;;;;8.43;5.50;;;;;;;;;;7384172;19;20676;-73
2022/03/07 08:49:47;;;;;;;10.38;6.18;;;;;;;;;;7384019;19;20002;-74
2022/03/07 08:52:15;;;;;;;11.75;6.70;;;;;;;;;;7384807;19;20126;-72
2022/03/07 08:54:42;;;;;;;8.70;5.95;;;;;;;;;;7386607;19;20022;-73
2022/03/07 08:57:08;;;;;;;10.48;5.82;;;;;;;;;;7383297;19;20445;-74
2022/03/07 08:59:33;;;;;;;10.68;6.63;;;;;;;;;;7382528;19;20279;-76
2022/03/07 09:01:58;;;;;;;9.77;6.15;;;;;;;;;;7384148;19;20010;-71
2022/03/07 09:04:25;;;;;;;10.52;6.30;;;;;;;;;;7386449;19;20001;-73
2022/03/07 09:06:54;;;;;;;10.48;6.28;;;;;;;;;;7382496;19;20014;-73
2022/03/07 09:09:19;;;;;;;10.15;6.63;;;;;;;;;;7383770;19;20162;-73
2022/03/07 09:11:45;;;;;;;10.38;6.53;;;;;;;;;;7387025;19;20079;-73
2022/03/07 09:14:11;;;;;;;9.98;6.20;;;;;;;;;;7384294;19;20016;-73
2022/03/07 09:16:36;;;;;;;11.07;6.70;;;;;;;;;;7381385;19;20093;-73
2022/03/07 09:19:02;;;;;;;13.18;7.05;;;;;;;;;;7382342;19;20039;-74
2022/03/07 09:21:27;;;;;;;11.35;6.93;;;;;;;;;;7383371;19;20039;-73
2022/03/07 09:23:53;;;;;;;15.85;7.40;;;;;;;;;;7384038;19;20045;-73
2022/03/07 09:26:18;;;;;;;13.27;6.68;;;;;;;;;;7384584;19;20019;-75
2022/03/07 09:28:44;;;;;;;11.02;6.75;;;;;;;;;;7382744;19;20019;-73
2022/03/07 09:31:09;;;;;;;12.55;6.70;;;;;;;;;;7386365;19;20002;-74
2022/03/07 09:33:35;;;;;;;12.50;7.28;;;;;;;;;;7385331;19;20449;-73
2022/03/07 09:36:00;;;;;;;10.35;7.18;;;;;;;;;;7385576;19;20011;-72
2022/03/07 09:38:27;;;;;;;10.18;6.95;;;;;;;;;;7384003;19;20007;-73
2022/03/07 09:40:54;;;;;;;11.75;6.97;;;;;;;;;;7379964;19;20022;-74
2022/03/07 09:43:20;;;;;;;10.85;6.90;;;;;;;;;;7382250;19;20037;-73
2022/03/07 09:45:46;;;;;;;14.05;7.07;;;;;;;;;;7380125;19;20019;-73
2022/03/07 09:48:12;;;;;;;9.88;6.93;;;;;;;;;;7380854;19;20017;-72
2022/03/07 09:50:39;;;;;;;14.25;7.63;;;;;;;;;;7382428;19;20017;-74
2022/03/07 09:53:04;;;;;;;11.07;6.75;;;;;;;;;;7380852;19;20131;-75
2022/03/07 09:55:30;;;;;;;14.68;7.45;;;;;;;;;;7380610;19;20639;-76
2022/03/07 09:57:55;;;;;;;11.55;6.90;;;;;;;;;;7378145;19;20114;-73
2022/03/07 10:00:21;;;;;;;10.82;6.93;;;;;;;;;;7381110;19;20358;-75
2022/03/07 10:03:02;;;;;;;12.38;7.50;;;;;;;;;;7376677;19;20563;-72
2022/03/07 10:05:31;;;;;;;14.23;7.55;;;;;;;;;;7383487;19;20015;-73
2022/03/07 10:07:57;;;;;;;12.73;7.35;;;;;;;;;;7381762;19;20045;-73
2022/03/07 10:10:31;;;;;;;11.57;7.47;;;;;;;;;;7381660;19;20295;-73
2022/03/07 10:12:56;;;;;;;10.80;7.38;;;;;;;;;;7384324;19;20042;-74
2022/03/07 10:15:22;;;;;;;13.02;7.72;;;;;;;;;;7379022;19;20480;-73
2022/03/07 10:17:53;;;;;;;11.82;7.88;;;;;;;;;;7381954;19;20334;-72
2022/03/07 10:20:21;;;;;;;12.60;8.10;;;;;;;;;;7382598;19;20077;-72
2022/03/07 10:22:50;;;;;;;14.18;7.70;;;;;;;;;;7383899;19;20460;-73
2022/03/07 10:25:20;;;;;;;11.98;7.07;;;;;;;;;;7380827;19;20021;-72
2022/03/07 10:27:48;;;;;;;14.10;8.10;;;;;;;;;;7383457;19;20025;-75
2022/03/07 10:30:17;;;;;;;13.70;7.63;;;;;;;;;;7380287;19;20014;-73
2022/03/07 10:32:50;;;;;;;11.38;8.23;;;;;;;;;;7379512;19;20575;-74
2022/03/07 10:35:42;;;;;;;12.70;7.35;;;;;;;;;;7381531;19;20018;-72
2022/03/07 10:38:11;;;;;;;15.82;6.95;;;;;;;;;;7378816;19;20076;-73
2022/03/07 10:40:39;;;;;;;15.05;7.40;;;;;;;;;;7380243;19;20068;-74
2022/03/07 10:43:06;;;;;;;12.02;7.25;;;;;;;;;;7380073;19;20018;-74
2022/03/07 10:45:42;;;;;;;13.35;7.68;;;;;;;;;;7380341;19;20010;-73
2022/03/07 10:48:08;;;;;;;16.02;7.30;;;;;;;;;;7378134;19;20091;-72
2022/03/07 10:50:33;;;;;;;12.68;7.60;;;;;;;;;;7375724;19;20489;-75
2022/03/07 10:53:01;;;;;;;12.57;8.38;;;;;;;;;;7379598;19;20047;-73
2022/03/07 10:55:28;;;;;;;13.70;8.15;;;;;;;;;;7381587;19;20010;-73
2022/03/07 10:58:10;;;;;;;12.32;8.02;;;;;;;;;;7381388;19;20006;-71
2022/03/07 11:00:57;;;;;;;13.43;7.85;;;;;;;;;;7381746;19;20010;-74
2022/03/07 11:03:30;;;;;;;13.02;7.38;;;;;;;;;;7382012;19;20012;-71
2022/03/07 11:05:57;;;;;;;13.18;7.60;;;;;;;;;;7386963;19;20043;-73
2022/03/07 11:08:23;;;;;;;12.20;7.93;;;;;;;;;;7386783;19;20040;-74
2022/03/07 11:10:52;;;;;;;11.02;6.55;;;;;;;;;;7387514;19;20375;-74
2022/03/07 11:13:19;;;;;;;11.48;8.07;;;;;;;;;;7386343;19;20014;-73
2022/03/07 11:15:46;;;;;;;11.55;7.10;;;;;;;;;;7384598;19;20456;-71
2022/03/07 11:18:13;;;;;;;11.90;7.47;;;;;;;;;;7384724;19;20618;-72
2022/03/07 11:20:43;;;;;;;12.20;7.55;;;;;;;;;;7386371;19;20014;-73
2022/03/07 11:23:13;;;;;;;11.80;7.28;;;;;;;;;;7386262;19;20025;-74
2022/03/07 11:25:39;;;;;;;12.43;7.50;;;;;;;;;;7390762;19;20325;-73
2022/03/07 11:28:06;;;;;;;13.50;7.50;;;;;;;;;;7389779;19;20410;-72
2022/03/07 11:30:37;;;;;;;13.27;7.85;;;;;;;;;;7387835;19;20002;-73
2022/03/07 11:33:13;;;;;;;11.13;7.50;;;;;;;;;;7389075;19;20010;-74
2022/03/07 11:35:48;;;;;;;10.57;6.95;;;;;;;;;;7389202;19;20027;-72
2022/03/07 11:38:18;;;;;;;9.13;6.50;;;;;;;;;;7387056;19;20031;-72
2022/03/07 11:41:06;;;;;;;11.02;6.93;;;;;;;;;;7389760;19;20010;-72
2022/03/07 11:43:46;;;;;;;11.40;7.50;;;;;;;;;;7387050;19;20010;-73
2022/03/07 11:46:23;;;;;;;10.95;6.95;;;;;;;;;;7388540;19;20032;-73
2022/03/07 11:48:49;;;;;;;16.35;6.63;;;;;;;;;;7385876;19;20027;-71
2022/03/07 11:51:18;;;;;;;9.15;6.10;;;;;;;;;;7379600;19;20014;-72
2022/03/07 11:53:45;;;;;;;11.02;7.35;;;;;;;;;;7385007;19;20007;-72
2022/03/07 11:56:40;;;;;;;11.55;6.68;;;;;;;;;;7385462;19;20041;-73
2022/03/07 11:59:11;;;;;;;12.93;7.28;;;;;;;;;;7386189;19;20010;-73
2022/03/07 12:01:36;;;;;;;10.23;6.43;;;;;;;;;;7389736;19;19999;-74
2022/03/07 12:04:09;;;;;;;9.80;6.32;;;;;;;;;;7387467;19;20374;-73
2022/03/07 12:06:55;;;;;;;10.48;6.25;;;;;;;;;;7379862;19;20003;-71
2022/03/07 12:09:34;;;;;;;9.93;6.65;;;;;;;;;;7367577;19;20010;-73
2022/03/07 12:12:04;;;;;;;10.73;6.18;;;;;;;;;;7378309;19;20007;-73
2022/03/07 12:14:35;;;;;;;11.15;6.88;;;;;;;;;;7372573;19;20018;-72
2022/03/07 12:17:09;;;;;;;10.15;7.10;;;;;;;;;;7370824;19;20459;-74
2022/03/07 12:19:35;;;;;;;9.88;5.90;;;;;;;;;;7377478;19;20025;-74
2022/03/07 12:22:10;;;;;;;10.32;6.63;;;;;;;;;;7384404;19;20068;-72
2022/03/07 12:24:36;;;;;;;9.93;6.53;;;;;;;;;;7388192;19;20003;-73
2022/03/07 12:27:02;;;;;;;12.10;7.63;;;;;;;;;;7387232;19;20627;-72
2022/03/07 12:29:28;;;;;;;11.13;7.05;;;;;;;;;;7387091;19;20010;-74
2022/03/07 12:31:53;;;;;;;10.55;7.28;;;;;;;;;;7389792;19;20003;-72
2022/03/07 12:34:24;;;;;;;11.15;7.40;;;;;;;;;;7388891;19;20077;-73
2022/03/07 12:37:03;;;;;;;13.15;7.18;;;;;;;;;;7384647;19;20017;-72
2022/03/07 12:39:32;;;;;;;10.40;7.10;;;;;;;;;;7386693;19;20082;-72
2022/03/07 12:42:02;;;;;;;11.13;7.38;;;;;;;;;;7385046;19;20100;-72
2022/03/07 12:44:27;;;;;;;9.77;6.72;;;;;;;;;;7379945;19;20339;-72
2022/03/07 12:46:53;;;;;;;9.40;6.70;;;;;;;;;;7384134;19;20013;-73
2022/03/07 12:49:19;;;;;;;12.00;7.10;;;;;;;;;;7376313;19;20014;-71
2022/03/07 12:51:44;;;;;;;14.23;7.78;;;;;;;;;;7377712;19;20420;-71
2022/03/07 12:54:10;;;;;;;12.30;7.28;;;;;;;;;;7385961;19;20003;-71
2022/03/07 12:56:38;;;;;;;11.18;7.30;;;;;;;;;;7372057;19;20006;-72
2022/03/07 12:59:04;;;;;;;11.88;7.40;;;;;;;;;;7367804;19;20628;-73
2022/03/07 13:01:33;;;;;;;11.27;7.43;;;;;;;;;;7379709;19;20010;-73
2022/03/07 13:03:59;;;;;;;11.48;7.13;;;;;;;;;;7382356;19;20011;-73
2022/03/07 13:06:27;;;;;;;11.45;6.93;;;;;;;;;;7371047;19;20011;-73
2022/03/07 13:08:54;;;;;;;11.55;7.72;;;;;;;;;;7366492;19;20018;-71
2022/03/07 13:11:34;;;;;;;11.82;7.30;;;;;;;;;;7372354;19;20505;-73
2022/03/07 13:13:59;;;;;;;15.30;7.93;;;;;;;;;;7372230;19;20010;-73
2022/03/07 13:16:26;;;;;;;11.68;8.00;;;;;;;;;;7369846;19;20023;-72
2022/03/07 13:18:59;;;;;;;10.82;7.60;;;;;;;;;;7368490;19;20018;-71
2022/03/07 13:21:25;;;;;;;11.13;7.28;;;;;;;;;;7369727;19;20081;-73
2022/03/07 13:23:51;;;;;;;11.75;7.68;;;;;;;;;;7363924;19;20861;-74
2022/03/07 13:26:21;;;;;;;11.55;6.90;;;;;;;;;;7366022;19;20088;-71
2022/03/07 13:28:47;;;;;;;11.10;7.28;;;;;;;;;;7369282;19;20011;-76
2022/03/07 13:31:14;;;;;;;11.85;7.82;;;;;;;;;;7369623;19;20043;-72
2022/03/07 13:33:40;;;;;;;9.88;6.85;;;;;;;;;;7371634;19;20051;-72
2022/03/07 13:36:09;;;;;;;11.38;7.10;;;;;;;;;;7368950;19;20018;-73
2022/03/07 13:38:36;;;;;;;13.07;8.60;;;;;;;;;;7378491;19;20472;-74
2022/03/07 13:41:06;;;;;;;14.43;8.05;;;;;;;;;;7383006;19;20014;-73
2022/03/07 13:43:32;;;;;;;9.30;6.78;;;;;;;;;;7379253;19;20011;-74
2022/03/07 13:45:57;;;;;;;11.77;7.07;;;;;;;;;;7376924;19;20493;-76
2022/03/07 13:48:24;;;;;;;12.20;7.63;;;;;;;;;;7381990;19;20007;-74
2022/03/07 13:50:52;;;;;;;12.98;7.18;;;;;;;;;;7384381;19;20357;-75
2022/03/07 13:53:21;;;;;;;10.13;7.28;;;;;;;;;;7386331;19;20010;-74
2022/03/07 13:55:50;;;;;;;9.77;6.45;;;;;;;;;;7385694;19;20397;-72
2022/03/07 13:58:23;;;;;;;10.48;7.10;;;;;;;;;;7382564;19;20542;-73
2022/03/07 14:00:51;;;;;;;13.32;7.47;;;;;;;;;;7384355;19;20006;-74
2022/03/07 14:03:16;;;;;;;10.38;6.85;;;;;;;;;;7382501;19;20139;-74
2022/03/07 14:05:45;;;;;;;11.80;7.03;;;;;;;;;;7381664;19;20122;-75
2022/03/07 14:08:10;;;;;;;10.68;6.80;;;;;;;;;;7372088;19;20014;-72
2022/03/07 14:10:36;;;;;;;10.85;7.05;;;;;;;;;;7382157;19;20117;-73
2022/03/07 14:13:02;;;;;;;10.95;6.75;;;;;;;;;;7384938;19;20049;-73
2022/03/07 14:15:29;;;;;;;11.48;7.30;;;;;;;;;;7385636;19;20011;-74
2022/03/07 14:18:01;;;;;;;9.85;6.63;;;;;;;;;;7382000;19;20025;-71
2022/03/07 14:20:27;;;;;;;13.52;8.10;;;;;;;;;;7376978;19;20368;-71
2022/03/07 14:22:53;;;;;;;14.90;7.43;;;;;;;;;;7380653;19;20406;-71
2022/03/07 14:25:18;;;;;;;11.85;6.68;;;;;;;;;;7383242;19;20036;-72
2022/03/07 14:27:44;;;;;;;11.35;7.50;;;;;;;;;;7381977;19;20035;-71
2022/03/07 14:30:10;;;;;;;10.05;6.47;;;;;;;;;;7376004;19;20085;-71
2022/03/07 14:32:36;;;;;;;10.70;6.80;;;;;;;;;;7370751;19;20015;-74
2022/03/07 14:35:01;;;;;;;10.35;6.80;;;;;;;;;;7369141;19;20002;-74